sensor_id;sensor_type;location;lat;lon;timestamp;P1;durP1;ratioP1;P2;durP2;ratioP2
24030;SDS011;12240;51.142;22.486;2023-03-01T00:01:49;219.10;;;53.28;;
24030;SDS011;12240;51.142;22.486;2023-03-01T00:04:17;215.18;;;54.63;;
24030;SDS011;12240;51.142;22.486;2023-03-01T00:06:45;251.85;;;56.80;;
24030;SDS011;12240;51.142;22.486;2023-03-01T00:09:15;291.38;;;65.32;;
24030;SDS011;12240;51.142;22.486;2023-03-01T00:11:44;241.93;;;54.22;;
24030;SDS011;12240;51.142;22.486;2023-03-01T00:14:13;171.57;;;41.15;;
24030;SDS011;12240;51.142;22.486;2023-03-01T00:16:43;229.48;;;51.85;;
24030;SDS011;12240;51.142;22.486;2023-03-01T00:19:13;172.90;;;43.05;;
24030;SDS011;12240;51.142;22.486;2023-03-01T00:21:44;178.70;;;44.35;;
24030;SDS011;12240;51.142;22.486;2023-03-01T00:24:13;170.15;;;43.63;;
24030;SDS011;12240;51.142;22.486;2023-03-01T00:26:41;177.07;;;44.33;;
24030;SDS011;12240;51.142;22.486;2023-03-01T00:29:10;170.27;;;42.92;;
24030;SDS011;12240;51.142;22.486;2023-03-01T00:31:38;152.07;;;39.58;;
24030;SDS011;12240;51.142;22.486;2023-03-01T00:34:05;150.65;;;38.15;;
24030;SDS011;12240;51.142;22.486;2023-03-01T00:36:34;142.85;;;36.80;;
24030;SDS011;12240;51.142;22.486;2023-03-01T00:39:05;151.05;;;37.78;;
24030;SDS011;12240;51.142;22.486;2023-03-01T00:41:39;159.30;;;41.42;;
24030;SDS011;12240;51.142;22.486;2023-03-01T00:44:09;143.77;;;40.55;;
24030;SDS011;12240;51.142;22.486;2023-03-01T00:46:38;174.07;;;42.30;;
24030;SDS011;12240;51.142;22.486;2023-03-01T00:49:07;308.13;;;68.63;;
24030;SDS011;12240;51.142;22.486;2023-03-01T00:51:36;254.25;;;58.03;;
24030;SDS011;12240;51.142;22.486;2023-03-01T00:54:04;231.13;;;50.88;;
24030;SDS011;12240;51.142;22.486;2023-03-01T00:56:32;171.93;;;42.88;;
24030;SDS011;12240;51.142;22.486;2023-03-01T00:59:01;149.80;;;42.13;;
24030;SDS011;12240;51.142;22.486;2023-03-01T01:01:30;154.10;;;43.30;;
24030;SDS011;12240;51.142;22.486;2023-03-01T01:04:00;156.20;;;41.10;;
24030;SDS011;12240;51.142;22.486;2023-03-01T01:06:33;175.63;;;46.13;;
24030;SDS011;12240;51.142;22.486;2023-03-01T01:09:06;167.00;;;45.95;;
24030;SDS011;12240;51.142;22.486;2023-03-01T01:11:34;170.95;;;47.40;;
24030;SDS011;12240;51.142;22.486;2023-03-01T01:14:03;156.35;;;43.05;;
24030;SDS011;12240;51.142;22.486;2023-03-01T01:16:32;175.77;;;47.70;;
24030;SDS011;12240;51.142;22.486;2023-03-01T01:19:01;155.93;;;42.42;;
24030;SDS011;12240;51.142;22.486;2023-03-01T01:21:30;167.73;;;44.10;;
24030;SDS011;12240;51.142;22.486;2023-03-01T01:23:58;159.05;;;42.25;;
24030;SDS011;12240;51.142;22.486;2023-03-01T01:26:28;172.85;;;44.75;;
24030;SDS011;12240;51.142;22.486;2023-03-01T01:29:01;167.15;;;46.42;;
24030;SDS011;12240;51.142;22.486;2023-03-01T01:34:02;163.43;;;46.33;;
24030;SDS011;12240;51.142;22.486;2023-03-01T01:36:33;167.35;;;42.92;;
24030;SDS011;12240;51.142;22.486;2023-03-01T01:39:03;175.18;;;45.42;;
24030;SDS011;12240;51.142;22.486;2023-03-01T01:41:31;153.45;;;44.45;;
24030;SDS011;12240;51.142;22.486;2023-03-01T01:46:58;159.50;;;40.53;;
24030;SDS011;12240;51.142;22.486;2023-03-01T01:49:38;206.07;;;48.78;;
24030;SDS011;12240;51.142;22.486;2023-03-01T01:52:19;206.18;;;48.58;;
24030;SDS011;12240;51.142;22.486;2023-03-01T01:55:07;172.38;;;42.55;;
24030;SDS011;12240;51.142;22.486;2023-03-01T01:57:41;188.35;;;45.13;;
24030;SDS011;12240;51.142;22.486;2023-03-01T02:00:16;163.57;;;41.25;;
24030;SDS011;12240;51.142;22.486;2023-03-01T02:02:50;171.13;;;42.88;;
24030;SDS011;12240;51.142;22.486;2023-03-01T02:08:25;159.23;;;39.60;;
24030;SDS011;12240;51.142;22.486;2023-03-01T02:10:57;150.05;;;38.50;;
24030;SDS011;12240;51.142;22.486;2023-03-01T02:13:31;151.05;;;38.53;;
24030;SDS011;12240;51.142;22.486;2023-03-01T02:16:05;143.52;;;37.90;;
24030;SDS011;12240;51.142;22.486;2023-03-01T02:18:38;150.73;;;36.78;;
24030;SDS011;12240;51.142;22.486;2023-03-01T02:27:45;136.68;;;38.20;;
24030;SDS011;12240;51.142;22.486;2023-03-01T02:30:43;133.70;;;31.83;;
24030;SDS011;12240;51.142;22.486;2023-03-01T02:33:34;163.77;;;40.58;;
24030;SDS011;12240;51.142;22.486;2023-03-01T02:36:07;135.38;;;34.97;;
24030;SDS011;12240;51.142;22.486;2023-03-01T02:38:46;162.90;;;39.45;;
24030;SDS011;12240;51.142;22.486;2023-03-01T02:41:18;141.13;;;36.90;;
24030;SDS011;12240;51.142;22.486;2023-03-01T02:43:48;159.35;;;38.75;;
24030;SDS011;12240;51.142;22.486;2023-03-01T02:46:18;140.88;;;37.50;;
24030;SDS011;12240;51.142;22.486;2023-03-01T02:48:54;160.25;;;39.50;;
24030;SDS011;12240;51.142;22.486;2023-03-01T02:54:46;160.02;;;39.33;;
24030;SDS011;12240;51.142;22.486;2023-03-01T02:57:23;166.88;;;40.50;;
24030;SDS011;12240;51.142;22.486;2023-03-01T02:59:55;135.68;;;35.28;;
24030;SDS011;12240;51.142;22.486;2023-03-01T03:02:28;145.07;;;36.88;;
24030;SDS011;12240;51.142;22.486;2023-03-01T03:05:17;144.48;;;36.22;;
24030;SDS011;12240;51.142;22.486;2023-03-01T03:07:53;161.40;;;35.47;;
24030;SDS011;12240;51.142;22.486;2023-03-01T03:10:30;152.57;;;38.22;;
24030;SDS011;12240;51.142;22.486;2023-03-01T03:13:03;122.03;;;32.20;;
24030;SDS011;12240;51.142;22.486;2023-03-01T03:15:36;148.25;;;36.33;;
24030;SDS011;12240;51.142;22.486;2023-03-01T03:18:07;155.40;;;36.60;;
24030;SDS011;12240;51.142;22.486;2023-03-01T03:20:39;152.52;;;38.08;;
24030;SDS011;12240;51.142;22.486;2023-03-01T03:23:09;165.15;;;40.33;;
24030;SDS011;12240;51.142;22.486;2023-03-01T03:25:37;142.35;;;36.38;;
24030;SDS011;12240;51.142;22.486;2023-03-01T03:28:07;145.20;;;36.50;;
24030;SDS011;12240;51.142;22.486;2023-03-01T03:33:08;156.30;;;37.38;;
24030;SDS011;12240;51.142;22.486;2023-03-01T03:35:41;155.63;;;38.78;;
24030;SDS011;12240;51.142;22.486;2023-03-01T03:38:16;125.15;;;32.55;;
24030;SDS011;12240;51.142;22.486;2023-03-01T03:40:50;153.30;;;36.42;;
24030;SDS011;12240;51.142;22.486;2023-03-01T03:43:30;137.10;;;33.92;;
24030;SDS011;12240;51.142;22.486;2023-03-01T03:46:02;134.35;;;32.05;;
24030;SDS011;12240;51.142;22.486;2023-03-01T03:48:33;104.75;;;25.77;;
24030;SDS011;12240;51.142;22.486;2023-03-01T03:51:03;110.30;;;28.60;;
24030;SDS011;12240;51.142;22.486;2023-03-01T03:53:33;132.85;;;34.65;;
24030;SDS011;12240;51.142;22.486;2023-03-01T03:56:01;125.90;;;32.35;;
24030;SDS011;12240;51.142;22.486;2023-03-01T03:58:33;120.33;;;30.97;;
24030;SDS011;12240;51.142;22.486;2023-03-01T04:01:02;101.00;;;25.30;;
24030;SDS011;12240;51.142;22.486;2023-03-01T04:03:31;144.07;;;36.53;;
24030;SDS011;12240;51.142;22.486;2023-03-01T04:06:02;128.68;;;34.08;;
24030;SDS011;12240;51.142;22.486;2023-03-01T04:08:31;124.93;;;31.55;;
24030;SDS011;12240;51.142;22.486;2023-03-01T04:11:01;130.88;;;34.47;;
24030;SDS011;12240;51.142;22.486;2023-03-01T04:13:52;146.68;;;34.03;;
24030;SDS011;12240;51.142;22.486;2023-03-01T04:16:24;135.10;;;33.55;;
24030;SDS011;12240;51.142;22.486;2023-03-01T04:18:53;141.25;;;30.10;;
24030;SDS011;12240;51.142;22.486;2023-03-01T04:21:21;128.07;;;31.45;;
24030;SDS011;12240;51.142;22.486;2023-03-01T04:23:49;136.45;;;33.35;;
24030;SDS011;12240;51.142;22.486;2023-03-01T04:26:19;117.35;;;29.77;;
24030;SDS011;12240;51.142;22.486;2023-03-01T04:28:48;143.68;;;34.67;;
24030;SDS011;12240;51.142;22.486;2023-03-01T04:31:18;134.57;;;32.13;;
24030;SDS011;12240;51.142;22.486;2023-03-01T04:33:49;148.20;;;32.47;;
24030;SDS011;12240;51.142;22.486;2023-03-01T04:36:21;122.22;;;30.42;;
24030;SDS011;12240;51.142;22.486;2023-03-01T04:38:52;125.68;;;30.73;;
24030;SDS011;12240;51.142;22.486;2023-03-01T04:41:22;124.95;;;31.35;;
24030;SDS011;12240;51.142;22.486;2023-03-01T04:43:54;132.23;;;31.33;;
24030;SDS011;12240;51.142;22.486;2023-03-01T04:46:22;109.70;;;31.50;;
24030;SDS011;12240;51.142;22.486;2023-03-01T04:48:51;150.70;;;33.40;;
24030;SDS011;12240;51.142;22.486;2023-03-01T04:51:19;120.95;;;30.73;;
24030;SDS011;12240;51.142;22.486;2023-03-01T04:53:48;149.10;;;34.22;;
24030;SDS011;12240;51.142;22.486;2023-03-01T04:56:16;138.48;;;33.10;;
24030;SDS011;12240;51.142;22.486;2023-03-01T04:58:45;174.77;;;36.03;;
24030;SDS011;12240;51.142;22.486;2023-03-01T05:01:15;159.30;;;35.72;;
24030;SDS011;12240;51.142;22.486;2023-03-01T05:03:47;199.00;;;40.38;;
24030;SDS011;12240;51.142;22.486;2023-03-01T05:06:18;176.38;;;39.92;;
24030;SDS011;12240;51.142;22.486;2023-03-01T05:08:48;175.43;;;40.22;;
24030;SDS011;12240;51.142;22.486;2023-03-01T05:11:16;234.15;;;45.38;;
24030;SDS011;12240;51.142;22.486;2023-03-01T05:13:44;172.85;;;41.38;;
24030;SDS011;12240;51.142;22.486;2023-03-01T05:16:13;156.90;;;38.95;;
24030;SDS011;12240;51.142;22.486;2023-03-01T05:18:42;170.57;;;40.92;;
24030;SDS011;12240;51.142;22.486;2023-03-01T05:21:11;155.52;;;38.65;;
24030;SDS011;12240;51.142;22.486;2023-03-01T05:23:43;195.70;;;46.30;;
24030;SDS011;12240;51.142;22.486;2023-03-01T05:26:11;162.32;;;40.60;;
24030;SDS011;12240;51.142;22.486;2023-03-01T05:28:54;156.02;;;36.22;;
24030;SDS011;12240;51.142;22.486;2023-03-01T05:31:26;136.88;;;36.13;;
24030;SDS011;12240;51.142;22.486;2023-03-01T05:33:55;131.88;;;33.75;;
24030;SDS011;12240;51.142;22.486;2023-03-01T05:36:24;137.18;;;37.88;;
24030;SDS011;12240;51.142;22.486;2023-03-01T05:38:52;174.30;;;38.30;;
24030;SDS011;12240;51.142;22.486;2023-03-01T05:41:20;128.98;;;33.88;;
24030;SDS011;12240;51.142;22.486;2023-03-01T05:43:48;162.90;;;41.60;;
24030;SDS011;12240;51.142;22.486;2023-03-01T05:46:16;168.10;;;42.53;;
24030;SDS011;12240;51.142;22.486;2023-03-01T05:48:44;178.55;;;44.72;;
24030;SDS011;12240;51.142;22.486;2023-03-01T05:51:12;149.10;;;41.15;;
24030;SDS011;12240;51.142;22.486;2023-03-01T05:53:40;142.50;;;38.72;;
24030;SDS011;12240;51.142;22.486;2023-03-01T05:56:08;193.23;;;46.95;;
24030;SDS011;12240;51.142;22.486;2023-03-01T05:58:36;140.07;;;36.03;;
24030;SDS011;12240;51.142;22.486;2023-03-01T06:01:05;134.32;;;36.50;;
24030;SDS011;12240;51.142;22.486;2023-03-01T06:03:40;159.77;;;44.15;;
24030;SDS011;12240;51.142;22.486;2023-03-01T06:06:09;180.23;;;44.50;;
24030;SDS011;12240;51.142;22.486;2023-03-01T06:08:37;153.57;;;40.60;;
24030;SDS011;12240;51.142;22.486;2023-03-01T06:11:05;147.90;;;37.83;;
24030;SDS011;12240;51.142;22.486;2023-03-01T06:13:34;127.78;;;34.28;;
24030;SDS011;12240;51.142;22.486;2023-03-01T06:16:06;157.45;;;45.58;;
24030;SDS011;12240;51.142;22.486;2023-03-01T06:18:36;125.15;;;34.42;;
24030;SDS011;12240;51.142;22.486;2023-03-01T06:21:05;134.27;;;36.05;;
24030;SDS011;12240;51.142;22.486;2023-03-01T06:23:35;144.88;;;38.25;;
24030;SDS011;12240;51.142;22.486;2023-03-01T06:26:07;140.05;;;37.90;;
24030;SDS011;12240;51.142;22.486;2023-03-01T06:28:36;125.47;;;36.03;;
24030;SDS011;12240;51.142;22.486;2023-03-01T06:31:04;133.20;;;37.08;;
24030;SDS011;12240;51.142;22.486;2023-03-01T06:36:04;128.20;;;33.75;;
24030;SDS011;12240;51.142;22.486;2023-03-01T06:38:33;136.45;;;38.30;;
24030;SDS011;12240;51.142;22.486;2023-03-01T06:41:01;125.57;;;34.10;;
24030;SDS011;12240;51.142;22.486;2023-03-01T06:43:30;134.88;;;37.38;;
24030;SDS011;12240;51.142;22.486;2023-03-01T06:45:58;127.78;;;36.72;;
24030;SDS011;12240;51.142;22.486;2023-03-01T06:48:26;137.20;;;38.60;;
24030;SDS011;12240;51.142;22.486;2023-03-01T06:50:57;135.45;;;36.55;;
24030;SDS011;12240;51.142;22.486;2023-03-01T06:53:28;121.72;;;34.67;;
24030;SDS011;12240;51.142;22.486;2023-03-01T06:55:57;111.85;;;32.97;;
24030;SDS011;12240;51.142;22.486;2023-03-01T06:58:27;122.68;;;32.92;;
24030;SDS011;12240;51.142;22.486;2023-03-01T07:00:55;119.43;;;34.33;;
24030;SDS011;12240;51.142;22.486;2023-03-01T07:03:24;123.50;;;33.70;;
24030;SDS011;12240;51.142;22.486;2023-03-01T07:05:52;133.85;;;33.95;;
24030;SDS011;12240;51.142;22.486;2023-03-01T07:08:20;109.18;;;30.25;;
24030;SDS011;12240;51.142;22.486;2023-03-01T07:10:54;129.95;;;33.45;;
24030;SDS011;12240;51.142;22.486;2023-03-01T07:13:26;118.07;;;32.63;;
24030;SDS011;12240;51.142;22.486;2023-03-01T07:15:54;123.45;;;33.72;;
24030;SDS011;12240;51.142;22.486;2023-03-01T07:18:23;114.97;;;32.78;;
24030;SDS011;12240;51.142;22.486;2023-03-01T07:20:51;118.82;;;31.65;;
24030;SDS011;12240;51.142;22.486;2023-03-01T07:23:19;109.82;;;32.13;;
24030;SDS011;12240;51.142;22.486;2023-03-01T07:25:51;116.70;;;31.77;;
24030;SDS011;12240;51.142;22.486;2023-03-01T07:28:24;130.82;;;32.63;;
24030;SDS011;12240;51.142;22.486;2023-03-01T08:17:55;82.50;;;20.83;;
24030;SDS011;12240;51.142;22.486;2023-03-01T08:20:23;104.80;;;23.15;;
24030;SDS011;12240;51.142;22.486;2023-03-01T08:22:52;114.13;;;23.35;;
24030;SDS011;12240;51.142;22.486;2023-03-01T08:25:20;90.00;;;20.45;;
24030;SDS011;12240;51.142;22.486;2023-03-01T08:27:49;115.07;;;25.55;;
24030;SDS011;12240;51.142;22.486;2023-03-01T08:30:18;97.45;;;22.63;;
24030;SDS011;12240;51.142;22.486;2023-03-01T08:32:47;100.03;;;23.23;;
24030;SDS011;12240;51.142;22.486;2023-03-01T08:35:16;76.07;;;19.48;;
24030;SDS011;12240;51.142;22.486;2023-03-01T08:37:45;109.72;;;23.95;;
24030;SDS011;12240;51.142;22.486;2023-03-01T08:40:14;98.28;;;21.63;;
24030;SDS011;12240;51.142;22.486;2023-03-01T08:42:42;107.00;;;19.65;;
24030;SDS011;12240;51.142;22.486;2023-03-01T08:45:10;95.30;;;20.02;;
24030;SDS011;12240;51.142;22.486;2023-03-01T08:47:39;99.68;;;21.90;;
24030;SDS011;12240;51.142;22.486;2023-03-01T08:50:08;86.03;;;22.30;;
24030;SDS011;12240;51.142;22.486;2023-03-01T08:52:37;82.65;;;20.23;;
24030;SDS011;12240;51.142;22.486;2023-03-01T08:55:05;95.32;;;23.35;;
24030;SDS011;12240;51.142;22.486;2023-03-01T08:57:34;67.95;;;17.20;;
24030;SDS011;12240;51.142;22.486;2023-03-01T09:00:03;89.55;;;22.75;;
24030;SDS011;12240;51.142;22.486;2023-03-01T09:02:35;63.70;;;15.75;;
24030;SDS011;12240;51.142;22.486;2023-03-01T09:05:04;81.13;;;20.48;;
24030;SDS011;12240;51.142;22.486;2023-03-01T09:07:32;84.28;;;22.02;;
24030;SDS011;12240;51.142;22.486;2023-03-01T09:10:01;68.90;;;16.25;;
24030;SDS011;12240;51.142;22.486;2023-03-01T09:12:29;85.43;;;19.02;;
24030;SDS011;12240;51.142;22.486;2023-03-01T09:14:57;71.28;;;17.73;;
24030;SDS011;12240;51.142;22.486;2023-03-01T09:17:26;84.38;;;20.38;;
24030;SDS011;12240;51.142;22.486;2023-03-01T09:19:54;96.60;;;21.27;;
24030;SDS011;12240;51.142;22.486;2023-03-01T09:22:22;88.65;;;22.25;;
24030;SDS011;12240;51.142;22.486;2023-03-01T09:24:50;95.20;;;19.85;;
24030;SDS011;12240;51.142;22.486;2023-03-01T09:27:19;85.88;;;16.83;;
24030;SDS011;12240;51.142;22.486;2023-03-01T09:29:47;89.70;;;19.20;;
24030;SDS011;12240;51.142;22.486;2023-03-01T09:32:15;86.57;;;21.00;;
24030;SDS011;12240;51.142;22.486;2023-03-01T09:34:44;109.50;;;23.05;;
24030;SDS011;12240;51.142;22.486;2023-03-01T09:37:32;75.20;;;19.17;;
24030;SDS011;12240;51.142;22.486;2023-03-01T09:40:02;77.55;;;19.90;;
24030;SDS011;12240;51.142;22.486;2023-03-01T09:42:51;88.60;;;17.92;;
24030;SDS011;12240;51.142;22.486;2023-03-01T09:45:33;81.63;;;20.77;;
24030;SDS011;12240;51.142;22.486;2023-03-01T09:48:11;74.82;;;19.80;;
24030;SDS011;12240;51.142;22.486;2023-03-01T09:50:49;99.97;;;22.95;;
24030;SDS011;12240;51.142;22.486;2023-03-01T09:53:20;76.07;;;21.83;;
24030;SDS011;12240;51.142;22.486;2023-03-01T09:55:59;86.82;;;23.92;;
24030;SDS011;12240;51.142;22.486;2023-03-01T10:01:38;70.00;;;17.95;;
24030;SDS011;12240;51.142;22.486;2023-03-01T10:10:58;78.25;;;19.73;;
24030;SDS011;12240;51.142;22.486;2023-03-01T10:13:48;73.20;;;19.58;;
24030;SDS011;12240;51.142;22.486;2023-03-01T10:16:28;65.10;;;17.67;;
24030;SDS011;12240;51.142;22.486;2023-03-01T10:22:22;66.65;;;18.80;;
24030;SDS011;12240;51.142;22.486;2023-03-01T10:24:57;74.50;;;19.07;;
24030;SDS011;12240;51.142;22.486;2023-03-01T10:33:13;61.92;;;16.67;;
24030;SDS011;12240;51.142;22.486;2023-03-01T10:35:53;81.38;;;17.95;;
24030;SDS011;12240;51.142;22.486;2023-03-01T10:38:22;56.58;;;12.32;;
24030;SDS011;12240;51.142;22.486;2023-03-01T10:43:40;56.83;;;13.75;;
24030;SDS011;12240;51.142;22.486;2023-03-01T10:46:33;62.85;;;16.35;;
24030;SDS011;12240;51.142;22.486;2023-03-01T10:51:50;78.60;;;17.05;;
24030;SDS011;12240;51.142;22.486;2023-03-01T10:54:30;67.33;;;16.00;;
24030;SDS011;12240;51.142;22.486;2023-03-01T10:57:04;51.30;;;13.75;;
24030;SDS011;12240;51.142;22.486;2023-03-01T10:59:36;63.85;;;14.75;;
24030;SDS011;12240;51.142;22.486;2023-03-01T11:07:27;63.15;;;15.10;;
24030;SDS011;12240;51.142;22.486;2023-03-01T11:09:57;58.42;;;15.00;;
24030;SDS011;12240;51.142;22.486;2023-03-01T11:12:25;62.78;;;14.98;;
24030;SDS011;12240;51.142;22.486;2023-03-01T11:14:56;68.32;;;15.55;;
24030;SDS011;12240;51.142;22.486;2023-03-01T11:17:27;63.90;;;15.65;;
24030;SDS011;12240;51.142;22.486;2023-03-01T11:22:45;68.25;;;15.82;;
24030;SDS011;12240;51.142;22.486;2023-03-01T11:25:26;54.40;;;14.48;;
24030;SDS011;12240;51.142;22.486;2023-03-01T11:28:12;60.47;;;15.30;;
24030;SDS011;12240;51.142;22.486;2023-03-01T11:30:49;76.95;;;17.70;;
24030;SDS011;12240;51.142;22.486;2023-03-01T11:39:01;67.45;;;15.48;;
24030;SDS011;12240;51.142;22.486;2023-03-01T11:42:03;68.13;;;15.25;;
24030;SDS011;12240;51.142;22.486;2023-03-01T11:44:56;61.90;;;14.85;;
24030;SDS011;12240;51.142;22.486;2023-03-01T11:47:42;64.05;;;14.48;;
24030;SDS011;12240;51.142;22.486;2023-03-01T11:50:40;61.15;;;14.50;;
24030;SDS011;12240;51.142;22.486;2023-03-01T11:55:58;88.03;;;18.50;;
24030;SDS011;12240;51.142;22.486;2023-03-01T11:58:38;72.32;;;17.10;;
24030;SDS011;12240;51.142;22.486;2023-03-01T12:18:21;65.18;;;16.13;;
24030;SDS011;12240;51.142;22.486;2023-03-01T12:26:42;71.40;;;16.52;;
24030;SDS011;12240;51.142;22.486;2023-03-01T12:29:26;79.25;;;16.40;;
24030;SDS011;12240;51.142;22.486;2023-03-01T12:49:53;95.10;;;14.82;;
24030;SDS011;12240;51.142;22.486;2023-03-01T12:55:37;75.55;;;14.35;;
24030;SDS011;12240;51.142;22.486;2023-03-01T13:11:53;102.45;;;15.73;;
24030;SDS011;12240;51.142;22.486;2023-03-01T13:16:53;55.75;;;12.73;;
24030;SDS011;12240;51.142;22.486;2023-03-01T13:19:26;43.92;;;11.45;;
24030;SDS011;12240;51.142;22.486;2023-03-01T13:21:59;43.85;;;11.27;;
24030;SDS011;12240;51.142;22.486;2023-03-01T13:24:48;51.95;;;12.55;;
24030;SDS011;12240;51.142;22.486;2023-03-01T13:27:54;60.80;;;12.63;;
24030;SDS011;12240;51.142;22.486;2023-03-01T13:33:48;74.35;;;13.52;;
24030;SDS011;12240;51.142;22.486;2023-03-01T13:38:58;42.25;;;12.18;;
24030;SDS011;12240;51.142;22.486;2023-03-01T13:46:57;61.67;;;10.52;;
24030;SDS011;12240;51.142;22.486;2023-03-01T13:49:29;77.10;;;17.80;;
24030;SDS011;12240;51.142;22.486;2023-03-01T13:55:05;57.80;;;10.43;;
24030;SDS011;12240;51.142;22.486;2023-03-01T13:57:43;86.60;;;13.88;;
24030;SDS011;12240;51.142;22.486;2023-03-01T14:00:38;60.05;;;19.23;;
24030;SDS011;12240;51.142;22.486;2023-03-01T14:03:18;50.43;;;9.40;;
24030;SDS011;12240;51.142;22.486;2023-03-01T14:08:42;75.25;;;12.35;;
24030;SDS011;12240;51.142;22.486;2023-03-01T14:11:37;39.72;;;9.50;;
24030;SDS011;12240;51.142;22.486;2023-03-01T14:19:55;73.80;;;13.63;;
24030;SDS011;12240;51.142;22.486;2023-03-01T14:22:27;43.50;;;10.02;;
24030;SDS011;12240;51.142;22.486;2023-03-01T14:25:17;49.60;;;10.90;;
24030;SDS011;12240;51.142;22.486;2023-03-01T14:27:51;71.25;;;13.32;;
24030;SDS011;12240;51.142;22.486;2023-03-01T14:30:42;80.53;;;13.15;;
24030;SDS011;12240;51.142;22.486;2023-03-01T14:36:08;60.05;;;12.07;;
24030;SDS011;12240;51.142;22.486;2023-03-01T14:41:17;54.50;;;10.77;;
24030;SDS011;12240;51.142;22.486;2023-03-01T14:46:38;56.50;;;11.00;;
24030;SDS011;12240;51.142;22.486;2023-03-01T14:49:12;54.88;;;11.48;;
24030;SDS011;12240;51.142;22.486;2023-03-01T14:51:52;120.70;;;17.73;;
24030;SDS011;12240;51.142;22.486;2023-03-01T14:54:44;70.93;;;13.27;;
24030;SDS011;12240;51.142;22.486;2023-03-01T14:57:21;60.80;;;12.32;;
24030;SDS011;12240;51.142;22.486;2023-03-01T14:59:59;98.45;;;15.88;;
24030;SDS011;12240;51.142;22.486;2023-03-01T15:02:33;58.17;;;13.20;;
24030;SDS011;12240;51.142;22.486;2023-03-01T15:05:03;41.83;;;11.65;;
24030;SDS011;12240;51.142;22.486;2023-03-01T15:07:38;36.83;;;11.13;;
24030;SDS011;12240;51.142;22.486;2023-03-01T15:10:14;36.50;;;11.35;;
24030;SDS011;12240;51.142;22.486;2023-03-01T15:12:51;50.60;;;13.63;;
24030;SDS011;12240;51.142;22.486;2023-03-01T15:15:21;39.13;;;10.73;;
24030;SDS011;12240;51.142;22.486;2023-03-01T15:18:00;49.33;;;12.73;;
24030;SDS011;12240;51.142;22.486;2023-03-01T15:20:49;54.67;;;13.10;;
24030;SDS011;12240;51.142;22.486;2023-03-01T15:25:51;56.53;;;12.80;;
24030;SDS011;12240;51.142;22.486;2023-03-01T15:28:25;49.13;;;13.05;;
24030;SDS011;12240;51.142;22.486;2023-03-01T15:31:02;46.85;;;12.07;;
24030;SDS011;12240;51.142;22.486;2023-03-01T15:33:51;57.13;;;13.05;;
24030;SDS011;12240;51.142;22.486;2023-03-01T15:42:07;49.80;;;12.45;;
24030;SDS011;12240;51.142;22.486;2023-03-01T15:45:08;46.85;;;11.73;;
24030;SDS011;12240;51.142;22.486;2023-03-01T15:47:48;55.35;;;12.40;;
24030;SDS011;12240;51.142;22.486;2023-03-01T15:50:25;47.00;;;12.48;;
24030;SDS011;12240;51.142;22.486;2023-03-01T15:53:07;54.65;;;13.40;;
24030;SDS011;12240;51.142;22.486;2023-03-01T15:55:42;53.42;;;13.32;;
24030;SDS011;12240;51.142;22.486;2023-03-01T15:58:21;50.10;;;12.27;;
24030;SDS011;12240;51.142;22.486;2023-03-01T16:00:53;76.00;;;16.17;;
24030;SDS011;12240;51.142;22.486;2023-03-01T16:03:29;67.68;;;13.85;;
24030;SDS011;12240;51.142;22.486;2023-03-01T16:05:59;46.58;;;12.50;;
24030;SDS011;12240;51.142;22.486;2023-03-01T16:08:28;56.28;;;14.70;;
24030;SDS011;12240;51.142;22.486;2023-03-01T16:10:57;44.22;;;12.55;;
24030;SDS011;12240;51.142;22.486;2023-03-01T16:13:25;52.83;;;14.77;;
24030;SDS011;12240;51.142;22.486;2023-03-01T16:15:55;47.47;;;13.60;;
24030;SDS011;12240;51.142;22.486;2023-03-01T16:18:25;45.13;;;13.35;;
24030;SDS011;12240;51.142;22.486;2023-03-01T16:20:54;48.55;;;13.48;;
24030;SDS011;12240;51.142;22.486;2023-03-01T16:23:22;60.40;;;16.25;;
24030;SDS011;12240;51.142;22.486;2023-03-01T16:25:52;62.13;;;17.17;;
24030;SDS011;12240;51.142;22.486;2023-03-01T16:28:21;54.25;;;15.45;;
24030;SDS011;12240;51.142;22.486;2023-03-01T16:30:49;62.10;;;18.38;;
24030;SDS011;12240;51.142;22.486;2023-03-01T16:33:19;53.00;;;15.95;;
24030;SDS011;12240;51.142;22.486;2023-03-01T16:36:09;66.03;;;19.17;;
24030;SDS011;12240;51.142;22.486;2023-03-01T16:38:39;61.85;;;18.60;;
24030;SDS011;12240;51.142;22.486;2023-03-01T16:41:15;55.28;;;17.38;;
24030;SDS011;12240;51.142;22.486;2023-03-01T16:43:46;284.75;;;53.08;;
24030;SDS011;12240;51.142;22.486;2023-03-01T16:46:16;403.05;;;80.32;;
24030;SDS011;12240;51.142;22.486;2023-03-01T16:48:49;185.40;;;45.13;;
24030;SDS011;12240;51.142;22.486;2023-03-01T16:51:18;141.25;;;34.40;;
24030;SDS011;12240;51.142;22.486;2023-03-01T16:53:47;175.32;;;40.08;;
24030;SDS011;12240;51.142;22.486;2023-03-01T16:56:17;177.98;;;39.78;;
24030;SDS011;12240;51.142;22.486;2023-03-01T16:58:46;166.95;;;37.97;;
24030;SDS011;12240;51.142;22.486;2023-03-01T17:01:16;154.40;;;37.40;;
24030;SDS011;12240;51.142;22.486;2023-03-01T17:06:20;122.90;;;31.63;;
24030;SDS011;12240;51.142;22.486;2023-03-01T17:08:50;116.83;;;31.70;;
24030;SDS011;12240;51.142;22.486;2023-03-01T17:11:19;109.30;;;28.83;;
24030;SDS011;12240;51.142;22.486;2023-03-01T17:13:48;100.30;;;27.83;;
24030;SDS011;12240;51.142;22.486;2023-03-01T17:16:18;92.63;;;26.40;;
24030;SDS011;12240;51.142;22.486;2023-03-01T17:18:47;109.53;;;27.52;;
24030;SDS011;12240;51.142;22.486;2023-03-01T17:21:16;84.15;;;24.95;;
24030;SDS011;12240;51.142;22.486;2023-03-01T17:23:45;93.38;;;24.80;;
24030;SDS011;12240;51.142;22.486;2023-03-01T17:26:16;93.03;;;23.15;;
24030;SDS011;12240;51.142;22.486;2023-03-01T17:28:45;94.97;;;23.58;;
24030;SDS011;12240;51.142;22.486;2023-03-01T17:31:19;78.45;;;21.73;;
24030;SDS011;12240;51.142;22.486;2023-03-01T17:33:48;100.55;;;27.17;;
24030;SDS011;12240;51.142;22.486;2023-03-01T17:36:18;115.72;;;34.30;;
24030;SDS011;12240;51.142;22.486;2023-03-01T17:38:46;115.93;;;33.78;;
24030;SDS011;12240;51.142;22.486;2023-03-01T17:41:16;110.30;;;29.98;;
24030;SDS011;12240;51.142;22.486;2023-03-01T17:43:45;115.90;;;31.30;;
24030;SDS011;12240;51.142;22.486;2023-03-01T17:46:13;110.68;;;30.55;;
24030;SDS011;12240;51.142;22.486;2023-03-01T17:48:43;151.73;;;39.90;;
24030;SDS011;12240;51.142;22.486;2023-03-01T17:51:11;149.68;;;39.75;;
24030;SDS011;12240;51.142;22.486;2023-03-01T17:53:39;132.07;;;34.92;;
24030;SDS011;12240;51.142;22.486;2023-03-01T17:56:08;140.77;;;34.25;;
24030;SDS011;12240;51.142;22.486;2023-03-01T17:58:37;124.43;;;31.15;;
24030;SDS011;12240;51.142;22.486;2023-03-01T18:03:43;158.88;;;40.33;;
24030;SDS011;12240;51.142;22.486;2023-03-01T18:06:15;138.50;;;36.35;;
24030;SDS011;12240;51.142;22.486;2023-03-01T18:08:48;108.05;;;31.38;;